Cottonwood Airport (P52)
Cottonwood, AZ
Field Elevation: 3562
Lat: 34°43.80N  Long: 112°02.10W
CTAF/Unicom Freq: 122.7000
   
    
Weather Advisories
10/23/2014 19:51 Z
Altimeter 30.15" Hg
Wind --
Gusts --
Visibility 10 SM
Temperature 27° C (81° F)
Dewpoint 4° C (39° F)
Relative Humidity 25%
Density Altitude 5,400 feet
Condensation Altitude 14,700 feet
Heat Index 26° C (79° F)
  Wind and Runways
History
 
 
More Info
All DigiWx sites map
NOAA Forecast
 
Airport IQ 5010
 
about DigiWx
 
FAA Disclaimer: The data displayed is for advisory purposes only and is not to be used for flight planning or operations. For official data, please call (not available) to hear the current automated AWOS voice message.
  METAR P52 231951Z AUTO 110999KT 10SM 27/04 A3015